Time;durP1;ratioP1;P1;durP2;ratioP2;P2;SDS_P1;SDS_P2;PMS_P1;PMS_P2;Temp;Humidity;BMP_temperature;BMP_pressure;BME280_temperature;BME280_humidity;BME280_pressure;Samples;Min_cycle;Max_cycle;Signal;HPM_P1;HPM_P2
2022/09/09 00:00:21;;;;;;;1.10;0.83;;;20.10;83.90;;;;;;5093855;28;20479;-70
2022/09/09 00:02:55;;;;;;;1.03;0.57;;;20.10;83.60;;;;;;5093557;28;20488;-70
2022/09/09 00:05:30;;;;;;;1.60;0.60;;;20.10;83.50;;;;;;5093438;28;20786;-70
2022/09/09 00:08:03;;;;;;;1.00;0.57;;;20.10;83.60;;;;;;5093448;28;20517;-70
2022/09/09 00:10:33;;;;;;;3.07;0.90;;;20.10;83.60;;;;;;5093421;28;20455;-70
2022/09/09 00:13:09;;;;;;;0.97;0.60;;;20.10;83.30;;;;;;5097312;28;20436;-70
2022/09/09 00:15:41;;;;;;;1.00;0.50;;;20.10;83.10;;;;;;5097654;28;20432;-70
2022/09/09 00:18:19;;;;;;;2.47;0.80;;;20.10;83.10;;;;;;5097554;28;20498;-70
2022/09/09 00:20:52;;;;;;;2.10;1.00;;;20.10;83.20;;;;;;5097504;28;20439;-70
2022/09/09 00:23:25;;;;;;;25.27;1.37;;;20.00;83.30;;;;;;5096996;28;20471;-70
2022/09/09 00:26:01;;;;;;;2.50;0.80;;;20.00;83.50;;;;;;5097111;28;20489;-70
2022/09/09 00:28:32;;;;;;;2.87;0.70;;;20.00;83.80;;;;;;5097046;28;20479;-70
2022/09/09 00:31:01;;;;;;;1.57;0.77;;;20.00;84.00;;;;;;5097091;28;20432;-70
2022/09/09 00:33:29;;;;;;;2.43;0.90;;;20.00;84.00;;;;;;5096851;28;20486;-70
2022/09/09 00:35:58;;;;;;;2.60;0.70;;;19.90;83.80;;;;;;5096894;28;20448;-70
2022/09/09 00:38:33;;;;;;;5.03;1.20;;;19.90;83.60;;;;;;5096795;28;20496;-70
2022/09/09 00:41:06;;;;;;;2.13;0.83;;;19.90;83.50;;;;;;5096834;28;20467;-70
2022/09/09 00:43:37;;;;;;;2.43;1.03;;;19.90;83.50;;;;;;5096939;28;20468;-70
2022/09/09 00:46:31;;;;;;;2.67;0.80;;;19.90;83.30;;;;;;5096881;28;20424;-70
2022/09/09 00:49:05;;;;;;;2.00;0.83;;;19.90;83.50;;;;;;5096756;28;20467;-70
2022/09/09 00:51:46;;;;;;;1.27;0.57;;;19.90;83.80;;;;;;5096994;28;20484;-70
2022/09/09 00:54:31;;;;;;;2.70;0.90;;;19.90;83.80;;;;;;5096260;28;20909;-70
2022/09/09 00:57:13;;;;;;;4.10;1.57;;;19.90;84.10;;;;;;5096849;28;20428;-70
2022/09/09 00:59:47;;;;;;;5.60;1.10;;;19.90;84.20;;;;;;5096361;28;20468;-69
2022/09/09 01:02:22;;;;;;;6.33;1.57;;;19.90;84.30;;;;;;5096435;28;20477;-69
2022/09/09 01:04:49;;;;;;;4.33;1.57;;;19.80;84.20;;;;;;5096536;28;20470;-70
2022/09/09 01:07:18;;;;;;;7.30;1.07;;;19.80;84.10;;;;;;5096008;28;20440;-70
2022/09/09 01:09:56;;;;;;;4.53;1.23;;;19.70;83.90;;;;;;5096294;28;20464;-70
2022/09/09 01:12:34;;;;;;;5.67;1.30;;;19.70;84.00;;;;;;5096290;28;20852;-70
2022/09/09 01:15:10;;;;;;;4.50;1.60;;;19.70;84.10;;;;;;5096454;28;20428;-70
2022/09/09 01:17:50;;;;;;;4.17;1.23;;;19.70;84.20;;;;;;5095919;28;20912;-69
2022/09/09 01:20:23;;;;;;;9.63;1.53;;;19.70;84.50;;;;;;5096150;28;20435;-69
2022/09/09 01:23:05;;;;;;;6.43;1.70;;;19.60;84.40;;;;;;5095772;28;20468;-69
2022/09/09 01:26:15;;;;;;;6.30;1.10;;;19.60;84.50;;;;;;5095891;28;20811;-69
2022/09/09 01:28:45;;;;;;;4.03;1.20;;;19.60;84.30;;;;;;5095444;28;20484;-69
2022/09/09 01:31:18;;;;;;;5.57;0.97;;;19.60;84.30;;;;;;5095703;28;20456;-69
2022/09/09 01:33:45;;;;;;;5.10;1.07;;;19.60;84.20;;;;;;5095696;28;20420;-70
2022/09/09 01:36:17;;;;;;;5.03;1.67;;;19.50;83.90;;;;;;5095678;28;20455;-70
2022/09/09 01:38:44;;;;;;;4.13;1.27;;;19.60;84.10;;;;;;5095671;28;20471;-70
2022/09/09 01:41:12;;;;;;;4.73;1.10;;;19.50;84.00;;;;;;5095587;28;20826;-70
2022/09/09 01:43:39;;;;;;;4.37;1.00;;;19.50;83.90;;;;;;5095094;28;21011;-70
2022/09/09 01:46:06;;;;;;;4.07;1.00;;;19.40;83.50;;;;;;5095568;28;20451;-69
2022/09/09 01:48:34;;;;;;;5.10;1.00;;;19.40;83.50;;;;;;5095317;28;20473;-70
2022/09/09 01:51:01;;;;;;;2.30;0.83;;;19.40;83.80;;;;;;5095065;28;20991;-70
2022/09/09 01:53:28;;;;;;;3.23;0.97;;;19.30;84.20;;;;;;5095466;28;20456;-70
2022/09/09 01:56:03;;;;;;;2.87;0.80;;;19.20;84.20;;;;;;5096020;28;20460;-70
2022/09/09 01:58:43;;;;;;;6.00;0.93;;;19.20;84.60;;;;;;5094911;28;20987;-70
2022/09/09 02:01:18;;;;;;;8.70;1.30;;;19.20;84.70;;;;;;5094979;28;20428;-70
2022/09/09 02:03:52;;;;;;;5.87;1.37;;;19.10;85.00;;;;;;5095100;28;20475;-70
2022/09/09 02:06:28;;;;;;;4.30;1.10;;;19.10;85.40;;;;;;5095665;28;20436;-70
2022/09/09 02:08:57;;;;;;;6.30;1.23;;;19.10;85.50;;;;;;5095102;28;20470;-70
2022/09/09 02:11:26;;;;;;;8.17;1.33;;;19.10;85.90;;;;;;5095022;28;20452;-70
2022/09/09 02:14:00;;;;;;;4.80;1.17;;;19.10;86.20;;;;;;5094959;28;20447;-70
2022/09/09 02:16:31;;;;;;;3.30;1.63;;;19.00;86.10;;;;;;5094714;28;20924;-70
2022/09/09 02:19:03;;;;;;;9.30;1.83;;;19.00;86.00;;;;;;5094773;28;20464;-70
2022/09/09 02:21:34;;;;;;;3.73;2.13;;;18.90;86.10;;;;;;5094786;28;20436;-70
2022/09/09 02:24:05;;;;;;;8.17;1.27;;;18.80;86.30;;;;;;5094265;28;21041;-70
2022/09/09 02:26:34;;;;;;;4.93;1.10;;;18.80;87.00;;;;;;5094790;28;20444;-70
2022/09/09 02:29:05;;;;;;;6.20;1.40;;;18.80;87.00;;;;;;5094361;28;20479;-70
2022/09/09 02:31:35;;;;;;;5.10;1.30;;;18.70;87.70;;;;;;5094752;28;20432;-70
2022/09/09 02:34:04;;;;;;;7.43;1.60;;;18.70;88.10;;;;;;5094674;28;20448;-70
2022/09/09 02:36:34;;;;;;;5.03;1.10;;;18.70;88.40;;;;;;5093586;28;20834;-70
2022/09/09 02:39:03;;;;;;;8.20;1.17;;;18.70;88.20;;;;;;5094644;28;20472;-70
2022/09/09 02:41:34;;;;;;;4.40;1.00;;;18.70;88.60;;;;;;5094221;28;21004;-70
2022/09/09 02:44:01;;;;;;;7.80;1.87;;;18.70;88.70;;;;;;5094381;28;20809;-70
2022/09/09 02:46:49;;;;;;;4.97;1.00;;;18.70;88.80;;;;;;5094841;28;20486;-70
2022/09/09 02:49:21;;;;;;;3.23;1.20;;;18.70;89.10;;;;;;5096427;28;20471;-70
2022/09/09 02:51:59;;;;;;;3.80;1.67;;;18.70;89.10;;;;;;5094362;28;20428;-70
2022/09/09 02:54:30;;;;;;;4.23;1.20;;;18.70;89.10;;;;;;5094032;28;20963;-70
2022/09/09 02:57:02;;;;;;;5.27;1.63;;;18.70;89.20;;;;;;5094307;28;20447;-70
2022/09/09 02:59:30;;;;;;;8.20;1.60;;;18.70;89.40;;;;;;5094446;28;20474;-70
2022/09/09 03:01:58;;;;;;;5.73;1.40;;;18.70;89.80;;;;;;5094093;28;20456;-70
2022/09/09 03:04:25;;;;;;;4.27;1.00;;;18.70;89.70;;;;;;5094341;28;20857;-70
2022/09/09 03:06:52;;;;;;;6.20;1.60;;;18.70;89.50;;;;;;5094226;28;20478;-71
2022/09/09 03:09:19;;;;;;;2.63;1.40;;;18.70;89.60;;;;;;5094569;28;20475;-71
2022/09/09 03:11:45;;;;;;;4.13;1.30;;;18.70;89.60;;;;;;5094953;28;20444;-71
2022/09/09 03:14:12;;;;;;;5.10;1.20;;;18.70;89.60;;;;;;5094359;28;20454;-70
2022/09/09 03:16:39;;;;;;;5.13;1.50;;;18.70;89.70;;;;;;5093643;28;20828;-70
2022/09/09 03:19:07;;;;;;;3.37;1.40;;;18.70;89.50;;;;;;5093886;28;20460;-70
2022/09/09 03:21:34;;;;;;;3.60;1.20;;;18.70;89.30;;;;;;5094003;28;20452;-71
2022/09/09 03:24:03;;;;;;;3.37;1.50;;;18.70;89.30;;;;;;5094171;28;20484;-70
2022/09/09 03:26:30;;;;;;;3.97;1.13;;;18.70;89.50;;;;;;5093924;28;20448;-71
2022/09/09 03:28:56;;;;;;;3.17;1.50;;;18.70;89.50;;;;;;5093776;28;20504;-70
2022/09/09 03:31:23;;;;;;;7.00;1.57;;;18.70;89.70;;;;;;5093716;28;20440;-70
2022/09/09 03:33:50;;;;;;;4.63;1.50;;;18.60;89.60;;;;;;5093964;28;20475;-70
2022/09/09 03:36:18;;;;;;;5.00;1.37;;;18.70;89.70;;;;;;5093666;28;20448;-70
2022/09/09 03:38:45;;;;;;;3.90;2.03;;;18.60;89.70;;;;;;5093706;28;20482;-71
2022/09/09 03:41:12;;;;;;;4.80;1.90;;;18.60;89.70;;;;;;5093460;28;20913;-71
2022/09/09 03:43:39;;;;;;;4.47;1.63;;;18.60;89.70;;;;;;5093608;28;20479;-70
2022/09/09 03:46:06;;;;;;;11.83;1.90;;;18.60;89.80;;;;;;5093860;28;20436;-69
2022/09/09 03:48:32;;;;;;;7.07;1.57;;;18.60;90.10;;;;;;5097920;28;20475;-70
2022/09/09 03:51:01;;;;;;;4.00;1.53;;;18.60;90.20;;;;;;5098407;28;20436;-70
2022/09/09 03:53:29;;;;;;;6.50;1.87;;;18.60;90.20;;;;;;5098095;28;20447;-70
2022/09/09 03:55:59;;;;;;;8.83;1.73;;;18.60;90.10;;;;;;5098109;28;20444;-70
2022/09/09 03:58:27;;;;;;;4.27;1.83;;;18.60;90.20;;;;;;5097878;28;20554;-70
2022/09/09 04:00:55;;;;;;;2.80;1.33;;;18.60;90.20;;;;;;5097924;28;20467;-69
2022/09/09 04:03:22;;;;;;;3.03;1.67;;;18.60;90.20;;;;;;5097684;28;20472;-70
2022/09/09 04:05:50;;;;;;;6.70;2.00;;;18.60;90.40;;;;;;5097955;28;20451;-70
2022/09/09 04:08:16;;;;;;;3.63;1.77;;;18.60;90.40;;;;;;5097426;28;20472;-70
2022/09/09 04:10:46;;;;;;;5.93;1.50;;;18.60;90.40;;;;;;5097786;28;20455;-70
2022/09/09 04:13:15;;;;;;;3.50;1.37;;;18.60;90.30;;;;;;5099897;28;20436;-70
2022/09/09 04:15:42;;;;;;;6.30;1.97;;;18.70;90.30;;;;;;5102069;28;20451;-69
2022/09/09 04:18:09;;;;;;;6.40;1.43;;;18.70;90.30;;;;;;5097729;28;20464;-69
2022/09/09 04:20:36;;;;;;;4.63;1.47;;;18.70;90.30;;;;;;5097599;28;20971;-70
2022/09/09 04:23:03;;;;;;;3.90;1.50;;;18.70;90.30;;;;;;5097231;28;21139;-70
2022/09/09 04:25:30;;;;;;;5.93;1.90;;;18.60;90.10;;;;;;5097848;28;20500;-70
2022/09/09 04:27:59;;;;;;;5.53;1.83;;;18.60;90.10;;;;;;5097506;28;20487;-70
2022/09/09 04:30:27;;;;;;;4.40;1.30;;;18.60;90.30;;;;;;5097558;28;20459;-70
2022/09/09 04:32:54;;;;;;;5.53;1.60;;;18.60;90.10;;;;;;5097337;28;20459;-70
2022/09/09 04:35:20;;;;;;;5.43;1.40;;;18.60;90.10;;;;;;5097154;28;20810;-69
2022/09/09 04:37:48;;;;;;;4.97;1.83;;;18.50;90.00;;;;;;5096540;28;20474;-70
2022/09/09 04:40:15;;;;;;;8.07;1.90;;;18.50;90.20;;;;;;5096802;28;20502;-69
2022/09/09 04:42:43;;;;;;;5.63;1.93;;;18.60;90.50;;;;;;5096629;28;20447;-69
2022/09/09 04:45:13;;;;;;;4.80;1.33;;;18.50;90.20;;;;;;5096593;28;20446;-69
2022/09/09 04:47:40;;;;;;;7.90;1.60;;;18.50;90.40;;;;;;5096927;28;20509;-69
2022/09/09 04:50:08;;;;;;;3.37;1.23;;;18.60;90.30;;;;;;5096357;28;20439;-69
2022/09/09 04:55:05;;;;;;;5.57;2.47;;;18.60;90.30;;;;;;5075759;28;20480;-70
2022/09/09 04:57:32;;;;;;;6.80;1.87;;;18.60;90.30;;;;;;5076746;28;20444;-70
2022/09/09 04:59:59;;;;;;;6.50;1.40;;;18.60;90.10;;;;;;5075430;28;20448;-70
2022/09/09 05:02:28;;;;;;;4.03;1.20;;;18.70;90.10;;;;;;5076534;28;20465;-69
2022/09/09 05:04:55;;;;;;;3.00;1.43;;;18.70;90.10;;;;;;5076292;28;20469;-69
2022/09/09 05:07:22;;;;;;;6.20;1.43;;;18.70;90.20;;;;;;5076300;28;20524;-69
2022/09/09 05:09:49;;;;;;;5.77;1.83;;;18.70;90.00;;;;;;5076223;28;20456;-69
2022/09/09 05:12:17;;;;;;;3.93;1.40;;;18.70;90.00;;;;;;5076261;28;20444;-70
2022/09/09 05:14:44;;;;;;;7.23;1.53;;;18.70;90.00;;;;;;5076075;28;20449;-70
2022/09/09 05:17:13;;;;;;;5.80;1.90;;;18.80;89.90;;;;;;5076090;28;20484;-70
2022/09/09 05:19:41;;;;;;;9.40;2.40;;;18.80;90.00;;;;;;5075863;28;20456;-70
2022/09/09 05:22:08;;;;;;;11.43;2.13;;;18.80;90.00;;;;;;5076217;28;20452;-71
2022/09/09 05:24:34;;;;;;;11.53;1.80;;;18.80;89.80;;;;;;5076253;28;20481;-70
2022/09/09 05:27:02;;;;;;;13.20;3.33;;;18.80;89.60;;;;;;5076549;28;20544;-70
2022/09/09 05:29:29;;;;;;;7.13;1.73;;;18.80;89.50;;;;;;5076056;28;20436;-72
2022/09/09 05:31:55;;;;;;;5.20;2.30;;;18.90;89.40;;;;;;5075550;28;20448;-70
2022/09/09 05:34:22;;;;;;;10.17;2.27;;;18.90;88.90;;;;;;5075546;28;20465;-70
2022/09/09 05:36:50;;;;;;;10.70;3.17;;;19.00;88.70;;;;;;5075308;28;20832;-70
2022/09/09 05:39:17;;;;;;;3.90;1.70;;;18.90;88.50;;;;;;5075157;28;20998;-68
2022/09/09 05:41:44;;;;;;;8.00;2.10;;;19.00;88.50;;;;;;5075756;28;20445;-70
2022/09/09 05:44:11;;;;;;;6.23;1.83;;;19.00;88.30;;;;;;5076044;28;20910;-65
2022/09/09 05:46:37;;;;;;;7.73;1.93;;;19.10;88.20;;;;;;5075877;28;20464;-69
2022/09/09 05:49:05;;;;;;;11.60;2.53;;;19.10;88.30;;;;;;5076264;28;20461;-65
2022/09/09 05:51:32;;;;;;;9.70;2.90;;;19.10;88.20;;;;;;5075754;28;20461;-65
2022/09/09 05:54:00;;;;;;;8.10;2.87;;;19.10;88.10;;;;;;5075130;28;20465;-64
2022/09/09 05:56:28;;;;;;;7.97;2.30;;;19.10;87.70;;;;;;5076241;28;20797;-64
2022/09/09 05:58:56;;;;;;;7.73;2.37;;;19.10;87.40;;;;;;5075397;28;20456;-65
2022/09/09 06:01:25;;;;;;;5.93;1.90;;;19.20;86.60;;;;;;5075824;28;20448;-65
2022/09/09 06:03:52;;;;;;;4.80;1.63;;;19.10;86.00;;;;;;5075530;28;20487;-65
2022/09/09 06:06:21;;;;;;;7.17;1.83;;;19.10;86.20;;;;;;5075756;28;20846;-65
2022/09/09 06:08:50;;;;;;;4.60;1.63;;;19.10;85.70;;;;;;5075666;28;20453;-65
2022/09/09 06:11:19;;;;;;;5.17;1.50;;;19.10;85.70;;;;;;5075198;28;20460;-64
2022/09/09 06:13:47;;;;;;;6.13;1.83;;;19.00;84.40;;;;;;5076044;28;20469;-65
2022/09/09 06:16:16;;;;;;;3.77;1.43;;;19.00;84.70;;;;;;5076098;28;20484;-65
2022/09/09 06:18:43;;;;;;;4.93;1.37;;;19.00;84.70;;;;;;5076136;28;20822;-65
2022/09/09 06:21:15;;;;;;;4.90;1.80;;;19.00;85.00;;;;;;5076889;28;20471;-65
2022/09/09 06:23:43;;;;;;;4.00;1.40;;;19.00;85.10;;;;;;5075828;28;20489;-65
2022/09/09 06:26:12;;;;;;;4.90;1.40;;;19.00;84.60;;;;;;5076210;28;20459;-66
2022/09/09 06:28:42;;;;;;;6.00;1.70;;;19.00;84.50;;;;;;5076271;28;20455;-65
2022/09/09 06:31:10;;;;;;;5.73;1.70;;;19.10;84.70;;;;;;5076550;28;20489;-65
2022/09/09 06:33:40;;;;;;;6.67;1.53;;;19.20;83.60;;;;;;5076271;28;20473;-66
2022/09/09 06:36:11;;;;;;;4.27;1.40;;;19.20;83.20;;;;;;5075991;28;20476;-65
2022/09/09 06:38:37;;;;;;;13.40;1.93;;;19.30;82.90;;;;;;5075385;28;20437;-66
2022/09/09 06:41:05;;;;;;;5.83;1.60;;;19.50;83.00;;;;;;5075475;28;20476;-66
2022/09/09 06:43:33;;;;;;;4.70;1.20;;;19.60;83.00;;;;;;5075337;28;20572;-65
2022/09/09 06:46:03;;;;;;;5.83;1.90;;;19.70;81.40;;;;;;5075511;28;20940;-66
2022/09/09 06:48:29;;;;;;;3.73;1.10;;;19.70;80.90;;;;;;5075642;28;20498;-65
2022/09/09 06:51:04;;;;;;;6.40;1.07;;;19.80;81.00;;;;;;5075072;28;20963;-65
2022/09/09 06:53:33;;;;;;;4.73;1.27;;;19.80;80.80;;;;;;5075422;28;20480;-66
2022/09/09 06:56:01;;;;;;;8.17;1.10;;;19.80;79.80;;;;;;5076055;28;20449;-66
2022/09/09 06:58:27;;;;;;;5.97;1.67;;;19.90;79.10;;;;;;5075898;28;20463;-65
2022/09/09 07:01:03;;;;;;;2.60;1.00;;;19.80;78.50;;;;;;5076549;28;20463;-65
2022/09/09 07:03:29;;;;;;;6.73;1.37;;;19.90;77.90;;;;;;5074931;28;20480;-66
2022/09/09 07:05:56;;;;;;;4.63;1.60;;;19.80;77.70;;;;;;5075919;28;20441;-66
2022/09/09 07:08:24;;;;;;;5.43;1.70;;;19.80;78.30;;;;;;5075751;28;20479;-66
2022/09/09 07:10:53;;;;;;;3.93;1.50;;;19.70;78.80;;;;;;5075802;28;20425;-65
2022/09/09 07:13:24;;;;;;;8.77;1.63;;;19.70;79.20;;;;;;5075622;28;20503;-65
2022/09/09 07:15:51;;;;;;;6.00;1.93;;;19.80;78.40;;;;;;5075151;28;20821;-65
2022/09/09 07:18:19;;;;;;;6.63;1.70;;;19.90;78.30;;;;;;5075772;28;21161;-65
2022/09/09 07:20:54;;;;;;;7.17;1.90;;;20.00;77.60;;;;;;5075181;28;20449;-65
2022/09/09 07:23:22;;;;;;;4.17;1.17;;;20.10;76.50;;;;;;5075251;28;20504;-65
2022/09/09 07:25:48;;;;;;;4.50;1.37;;;20.10;75.30;;;;;;5075700;28;20496;-65
2022/09/09 07:28:15;;;;;;;3.70;1.40;;;20.20;75.00;;;;;;5075345;28;20433;-65
2022/09/09 07:30:42;;;;;;;7.13;1.40;;;20.10;74.50;;;;;;5075015;28;20457;-65
2022/09/09 07:33:10;;;;;;;3.30;1.23;;;20.10;74.50;;;;;;5075100;28;20559;-66
2022/09/09 07:35:38;;;;;;;5.60;1.37;;;20.20;74.50;;;;;;5075877;28;20445;-66
2022/09/09 07:38:06;;;;;;;5.47;1.67;;;20.20;74.50;;;;;;5075371;28;20447;-65
2022/09/09 07:40:33;;;;;;;5.00;0.93;;;20.40;74.50;;;;;;5075876;28;20453;-65
2022/09/09 07:43:01;;;;;;;4.07;1.20;;;20.50;73.70;;;;;;5075888;28;20477;-66
2022/09/09 07:45:28;;;;;;;4.50;1.37;;;20.70;72.50;;;;;;5075599;28;20496;-66
2022/09/09 07:47:56;;;;;;;4.37;1.60;;;20.80;70.70;;;;;;5075906;28;20476;-64
2022/09/09 07:50:23;;;;;;;4.33;1.23;;;20.90;70.50;;;;;;5075881;28;20449;-65
2022/09/09 07:52:51;;;;;;;5.43;1.73;;;21.10;69.90;;;;;;5074892;28;20493;-65
2022/09/09 07:55:18;;;;;;;3.63;1.20;;;21.30;69.40;;;;;;5075614;28;20432;-65
2022/09/09 07:57:45;;;;;;;2.73;0.90;;;21.40;67.10;;;;;;5075043;28;20525;-66
2022/09/09 08:00:14;;;;;;;4.53;1.47;;;21.50;65.90;;;;;;5074634;28;20441;-66
2022/09/09 08:02:41;;;;;;;2.47;1.00;;;21.60;65.00;;;;;;5074132;28;20495;-65
2022/09/09 08:05:08;;;;;;;2.67;1.17;;;21.70;65.20;;;;;;5074095;28;21066;-65
2022/09/09 08:07:35;;;;;;;3.60;1.43;;;21.70;65.60;;;;;;5074120;28;20526;-65
2022/09/09 08:10:04;;;;;;;4.47;1.30;;;21.70;65.50;;;;;;5074648;28;20453;-66
2022/09/09 08:12:30;;;;;;;4.20;1.50;;;21.70;64.90;;;;;;5056188;28;20468;-65
2022/09/09 08:14:58;;;;;;;3.77;1.30;;;21.80;65.10;;;;;;5074798;28;20440;-65
2022/09/09 08:17:25;;;;;;;3.73;1.50;;;21.90;64.50;;;;;;5075095;28;20456;-65
2022/09/09 08:19:52;;;;;;;4.20;1.80;;;21.90;63.80;;;;;;5057533;28;20453;-66
2022/09/09 08:22:19;;;;;;;3.93;1.30;;;22.10;63.80;;;;;;5075751;28;20469;-65
2022/09/09 08:24:47;;;;;;;5.57;1.37;;;22.40;62.70;;;;;;5076346;28;20484;-66
2022/09/09 08:27:15;;;;;;;4.60;1.30;;;22.70;61.90;;;;;;5075586;28;21003;-66
2022/09/09 08:29:42;;;;;;;5.27;1.60;;;22.80;61.00;;;;;;5076237;28;20445;-65
2022/09/09 08:32:08;;;;;;;5.73;1.13;;;22.90;61.20;;;;;;5076060;28;20432;-65
2022/09/09 08:34:35;;;;;;;5.30;1.20;;;22.90;59.40;;;;;;5079292;28;20949;-69
2022/09/09 08:37:02;;;;;;;8.13;1.70;;;23.00;59.30;;;;;;5076864;28;20945;-71
2022/09/09 08:39:29;;;;;;;6.23;2.37;;;23.10;59.50;;;;;;5076906;28;20449;-70
2022/09/09 08:42:28;;;;;;;8.80;1.50;;;23.20;59.20;;;;;;5076733;28;20448;-70
2022/09/09 08:45:15;;;;;;;3.80;1.20;;;23.30;58.40;;;;;;5077391;28;20480;-70
2022/09/09 08:47:52;;;;;;;2.90;1.43;;;23.40;57.40;;;;;;5077085;28;20528;-70
2022/09/09 08:50:25;;;;;;;5.07;1.40;;;23.40;57.20;;;;;;5077273;28;20440;-70
2022/09/09 08:53:00;;;;;;;2.70;1.27;;;23.10;56.60;;;;;;5077056;28;20475;-70
2022/09/09 08:55:36;;;;;;;3.67;1.10;;;22.90;57.10;;;;;;5077137;28;20472;-70
2022/09/09 08:58:10;;;;;;;5.17;1.23;;;22.70;57.20;;;;;;5077434;28;20472;-71
2022/09/09 09:00:49;;;;;;;3.63;1.10;;;22.60;58.70;;;;;;5076905;28;20435;-71
2022/09/09 09:03:26;;;;;;;6.70;1.10;;;22.30;57.90;;;;;;5077091;28;20469;-70
2022/09/09 09:06:02;;;;;;;4.07;1.50;;;22.10;57.80;;;;;;5077253;28;20468;-70
2022/09/09 09:08:37;;;;;;;5.87;1.10;;;22.00;57.70;;;;;;5077320;28;20843;-70
2022/09/09 09:11:05;;;;;;;5.97;0.97;;;21.90;58.20;;;;;;5077201;28;20432;-66
2022/09/09 09:13:40;;;;;;;5.50;1.47;;;22.00;58.80;;;;;;5076980;28;20469;-66
2022/09/09 09:16:32;;;;;;;6.03;1.23;;;21.90;57.90;;;;;;5077352;28;20438;-66
2022/09/09 09:18:59;;;;;;;7.20;1.07;;;22.00;58.20;;;;;;5076978;28;20510;-66
2022/09/09 09:21:35;;;;;;;3.07;1.00;;;22.10;57.40;;;;;;5076526;28;20426;-66
2022/09/09 09:24:04;;;;;;;3.03;1.20;;;22.20;57.00;;;;;;5076527;28;20922;-66
2022/09/09 09:26:35;;;;;;;5.07;1.40;;;22.20;57.60;;;;;;5076494;28;20447;-66
2022/09/09 09:29:09;;;;;;;2.30;0.90;;;22.40;57.90;;;;;;5076923;28;20441;-66
2022/09/09 09:31:37;;;;;;;5.17;1.30;;;22.50;58.10;;;;;;5076936;28;20433;-66
2022/09/09 09:34:04;;;;;;;2.87;1.20;;;22.70;57.70;;;;;;5076894;28;20461;-65
2022/09/09 09:36:36;;;;;;;3.93;1.23;;;22.90;56.70;;;;;;5076382;28;20468;-65
2022/09/09 09:39:05;;;;;;;2.60;0.90;;;23.10;56.80;;;;;;5075789;28;20445;-65
2022/09/09 09:41:35;;;;;;;2.17;1.27;;;23.30;55.70;;;;;;5076422;28;20418;-65
2022/09/09 09:44:03;;;;;;;11.80;1.10;;;23.30;55.00;;;;;;5076025;28;20515;-65
2022/09/09 09:46:30;;;;;;;4.67;0.90;;;23.50;54.70;;;;;;5075657;28;20834;-65
2022/09/09 09:49:03;;;;;;;5.47;1.23;;;23.60;53.90;;;;;;5075651;28;20449;-65
2022/09/09 09:51:32;;;;;;;2.80;0.87;;;23.80;53.50;;;;;;5075960;28;20468;-65
2022/09/09 09:54:14;;;;;;;3.53;1.10;;;24.00;53.40;;;;;;5075712;28;20473;-65
2022/09/09 09:56:42;;;;;;;4.03;0.83;;;24.20;53.00;;;;;;5076259;28;20483;-65
2022/09/09 09:59:21;;;;;;;3.23;0.83;;;24.30;52.70;;;;;;5075461;28;20504;-65
2022/09/09 10:01:48;;;;;;;2.50;0.70;;;24.40;52.30;;;;;;5075948;28;20437;-65
2022/09/09 10:04:19;;;;;;;4.93;1.13;;;24.60;51.40;;;;;;5076742;28;20465;-65
2022/09/09 10:06:47;;;;;;;4.40;1.30;;;24.70;51.00;;;;;;5076360;28;20921;-65
2022/09/09 10:09:23;;;;;;;3.20;1.40;;;24.80;51.20;;;;;;5076494;28;20441;-65
2022/09/09 10:11:58;;;;;;;6.13;1.07;;;24.70;51.10;;;;;;5076783;28;20443;-65
2022/09/09 10:14:35;;;;;;;2.43;1.00;;;24.60;51.30;;;;;;5077475;28;20420;-65
2022/09/09 10:17:18;;;;;;;6.27;1.20;;;24.70;51.30;;;;;;5076455;28;20531;-65
2022/09/09 10:20:01;;;;;;;2.13;1.00;;;24.80;51.50;;;;;;5077309;28;20441;-65
2022/09/09 10:22:29;;;;;;;2.20;1.10;;;24.90;51.70;;;;;;5076143;28;20465;-65
2022/09/09 10:25:30;;;;;;;2.87;0.90;;;25.00;50.60;;;;;;5076212;28;20472;-65
2022/09/09 10:28:24;;;;;;;6.57;1.10;;;25.40;50.20;;;;;;5058406;28;20944;-66
2022/09/09 10:31:00;;;;;;;3.97;0.93;;;25.70;48.20;;;;;;5076173;28;20429;-66
2022/09/09 10:33:32;;;;;;;4.70;1.07;;;25.80;47.70;;;;;;5075594;28;20497;-66
2022/09/09 10:36:09;;;;;;;2.73;0.70;;;25.70;47.10;;;;;;5075084;28;20425;-66
2022/09/09 10:38:43;;;;;;;3.53;0.90;;;25.50;47.50;;;;;;5086096;28;20440;-66
2022/09/09 10:41:19;;;;;;;2.93;0.97;;;25.40;48.50;;;;;;5075058;28;20486;-65
2022/09/09 10:44:19;;;;;;;1.60;0.67;;;25.20;49.80;;;;;;5074707;28;20468;-65
2022/09/09 10:46:59;;;;;;;4.77;1.27;;;25.00;48.80;;;;;;5085445;28;20511;-66
2022/09/09 10:49:42;;;;;;;3.50;0.83;;;24.80;50.10;;;;;;5085048;28;20461;-65
2022/09/09 10:52:16;;;;;;;2.90;0.93;;;24.60;49.70;;;;;;5074874;28;20469;-66
2022/09/09 10:54:54;;;;;;;2.17;0.90;;;24.40;49.50;;;;;;5077659;28;20858;-65
2022/09/09 10:57:30;;;;;;;2.00;0.80;;;24.20;49.80;;;;;;5093539;28;20924;-65
2022/09/09 11:00:02;;;;;;;3.13;0.80;;;23.90;51.10;;;;;;5094516;28;20436;-66
2022/09/09 11:02:30;;;;;;;2.23;0.80;;;23.80;51.10;;;;;;5092154;28;20468;-65
2022/09/09 11:05:02;;;;;;;3.70;0.90;;;23.70;51.90;;;;;;5074337;28;20485;-65
2022/09/09 11:07:36;;;;;;;2.30;0.73;;;23.60;52.70;;;;;;5074555;28;20516;-66
2022/09/09 11:10:08;;;;;;;3.20;1.10;;;23.70;52.50;;;;;;5074987;28;20440;-66
2022/09/09 11:12:38;;;;;;;4.10;1.10;;;23.80;51.60;;;;;;5075063;28;20473;-64
2022/09/09 11:15:08;;;;;;;3.13;0.90;;;23.90;52.00;;;;;;5074865;28;20460;-66
2022/09/09 11:17:41;;;;;;;3.50;1.17;;;23.90;51.80;;;;;;5073699;28;20495;-65
2022/09/09 11:20:13;;;;;;;2.90;1.00;;;24.00;51.70;;;;;;5073616;28;20986;-65
2022/09/09 11:22:46;;;;;;;3.23;1.03;;;24.10;51.80;;;;;;5074073;28;20476;-66
2022/09/09 11:25:18;;;;;;;1.30;0.60;;;24.20;52.10;;;;;;5075179;28;20484;-66
2022/09/09 11:28:01;;;;;;;3.27;1.20;;;24.10;52.00;;;;;;5078116;28;20429;-65
2022/09/09 11:30:34;;;;;;;2.87;0.93;;;23.90;52.80;;;;;;5079277;28;20432;-63
2022/09/09 11:33:26;;;;;;;2.90;0.67;;;23.60;53.30;;;;;;5079045;28;20464;-64
2022/09/09 11:36:06;;;;;;;3.33;1.30;;;23.50;55.20;;;;;;5079964;28;20448;-64
2022/09/09 11:38:45;;;;;;;1.80;1.00;;;23.40;53.90;;;;;;5076278;28;20467;-64
2022/09/09 11:41:13;;;;;;;2.70;0.90;;;23.20;54.30;;;;;;5075488;28;20456;-66
2022/09/09 11:43:43;;;;;;;4.03;1.03;;;23.20;55.50;;;;;;5074528;28;20477;-66
2022/09/09 11:46:11;;;;;;;3.33;1.10;;;23.30;55.40;;;;;;5075262;28;21008;-66
2022/09/09 11:48:43;;;;;;;4.90;1.03;;;23.40;55.10;;;;;;5075275;28;20464;-65
2022/09/09 11:51:12;;;;;;;5.57;1.33;;;23.90;56.10;;;;;;5075524;28;20441;-66
2022/09/09 11:53:50;;;;;;;2.10;1.23;;;24.80;54.30;;;;;;5074363;28;20481;-65
2022/09/09 11:56:27;;;;;;;1.80;0.70;;;26.00;51.30;;;;;;5074819;28;20433;-66
2022/09/09 11:59:00;;;;;;;1.90;0.60;;;27.10;47.30;;;;;;5075497;28;20536;-65
2022/09/09 12:01:42;;;;;;;5.80;1.20;;;27.90;44.70;;;;;;5075678;28;20508;-65
2022/09/09 12:04:37;;;;;;;2.03;0.50;;;28.80;43.60;;;;;;5074849;28;20609;-65
2022/09/09 12:07:22;;;;;;;2.30;1.10;;;30.00;40.30;;;;;;5074726;28;21019;-65
2022/09/09 12:09:52;;;;;;;4.17;1.00;;;30.50;38.40;;;;;;5079311;28;20440;-65
2022/09/09 12:12:31;;;;;;;2.13;0.90;;;31.00;36.80;;;;;;5079064;28;20476;-66
2022/09/09 12:15:19;;;;;;;3.40;0.87;;;30.40;36.10;;;;;;5078813;28;20454;-66
2022/09/09 12:17:48;;;;;;;4.97;1.20;;;29.80;38.40;;;;;;5076166;28;20461;-65
2022/09/09 12:20:17;;;;;;;2.87;1.13;;;29.80;39.80;;;;;;5078614;28;20445;-66
2022/09/09 12:23:06;;;;;;;2.10;0.80;;;29.60;38.70;;;;;;5078364;28;20474;-65
2022/09/09 12:25:58;;;;;;;4.00;0.97;;;29.00;40.00;;;;;;5078730;28;20483;-65
2022/09/09 12:28:37;;;;;;;6.40;1.50;;;28.10;41.60;;;;;;5079386;28;20456;-66
2022/09/09 12:31:08;;;;;;;8.10;1.27;;;27.60;43.70;;;;;;5079031;28;20437;-65
2022/09/09 12:33:36;;;;;;;5.57;1.07;;;27.10;44.40;;;;;;5079158;28;20476;-65
2022/09/09 12:36:06;;;;;;;5.90;1.70;;;26.80;45.40;;;;;;5079370;28;20448;-65
2022/09/09 12:38:37;;;;;;;4.73;1.57;;;26.60;45.30;;;;;;5078215;28;20441;-65
2022/09/09 12:41:05;;;;;;;4.83;1.10;;;26.10;46.20;;;;;;5077494;28;20452;-65
2022/09/09 12:43:32;;;;;;;3.57;1.10;;;25.70;48.60;;;;;;5077875;28;21018;-65
2022/09/09 12:46:02;;;;;;;2.87;0.97;;;25.40;49.00;;;;;;5077370;28;20516;-65
2022/09/09 12:48:35;;;;;;;2.97;0.70;;;25.30;48.60;;;;;;5089881;28;20825;-63
2022/09/09 12:51:03;;;;;;;1.37;0.70;;;25.30;50.20;;;;;;5094767;28;20470;-66
2022/09/09 12:53:34;;;;;;;1.60;0.73;;;25.50;49.30;;;;;;5095335;28;20476;-65
2022/09/09 12:56:03;;;;;;;6.10;1.40;;;25.70;48.60;;;;;;5095058;28;20466;-65
2022/09/09 12:58:33;;;;;;;6.33;3.27;;;25.90;48.30;;;;;;5081157;28;20489;-65
2022/09/09 13:01:04;;;;;;;4.07;2.87;;;25.90;48.00;;;;;;5089048;28;20513;-64
2022/09/09 13:03:31;;;;;;;5.80;3.03;;;26.00;48.30;;;;;;5091882;28;20478;-64
2022/09/09 13:06:00;;;;;;;4.50;0.90;;;26.10;47.80;;;;;;5091419;28;20476;-65
2022/09/09 13:08:27;;;;;;;1.00;0.87;;;26.20;47.70;;;;;;5081572;28;20485;-64